Terminal Aerodrome Forecast
Issued by NWS

Home | Current Version | Previous Version | Text Only | Print | Product List | Glossary On
Versions: 1 2 3 4 5 6 7 8 9 10 11 12 13 14 15 16 17 18
000
FTUS44 KLZK 250500
TAFPBF
TAF
KPBF 250536Z 2506/2606 27006KT P6SM SKC
      TEMPO 2509/2513 5SM BR SCT015
     FM251300 34006KT P6SM SKC
     FM251800 07006KT P6SM SKC
     FM260000 13004KT P6SM SKC=

USA.gov is the U.S. government's official web portal to all federal, state and local government web resources and services.